Hudson, Kentucky
Current Conditions -  °F | °C
As of 8:58 PM on Thursday 25 Dec 2014 (Local Time) from KFTK Reporting Station
Clear Clear  
Wind Chill: 31°   Ceiling: Unl
Heat Index: 35°   Visibility: 10mi
Dew Point: 32°   Wind: 5mph
Humidity: 87%   Direction: 80°E
Pressure: 30.15"   Gusts: NA
Location:  37.65°N, 86.28°W
Report Text: KFTK 260258Z AUTO 08004KT 10SM CLR 02/00 A3015 RMK AO2 SLP218 T00191001 58008
Loading
Personal Weather Stations






























Interactive Weather Map New forecast layout! Learn more

10-Day Weather Forecast

Advertisements
Track Severe Weather on mobile